sensor_id;sensor_type;location;lat;lon;timestamp;temperature;humidity
10231;DHT22;62604;49.432;8.680;2022-10-13T00:01:10;11.40;99.90
10231;DHT22;62604;49.432;8.680;2022-10-13T00:03:38;11.40;99.90
10231;DHT22;62604;49.432;8.680;2022-10-13T00:06:07;11.30;99.90
10231;DHT22;62604;49.432;8.680;2022-10-13T00:08:35;11.30;99.90
10231;DHT22;62604;49.432;8.680;2022-10-13T00:11:10;11.30;99.90
10231;DHT22;62604;49.432;8.680;2022-10-13T00:13:37;11.30;99.90
10231;DHT22;62604;49.432;8.680;2022-10-13T00:16:06;11.30;99.90
10231;DHT22;62604;49.432;8.680;2022-10-13T00:18:33;11.30;99.90
10231;DHT22;62604;49.432;8.680;2022-10-13T00:21:00;11.30;99.90
10231;DHT22;62604;49.432;8.680;2022-10-13T00:23:32;11.30;99.90
10231;DHT22;62604;49.432;8.680;2022-10-13T00:26:02;11.30;99.90
10231;DHT22;62604;49.432;8.680;2022-10-13T00:28:31;11.20;99.90
10231;DHT22;62604;49.432;8.680;2022-10-13T00:30:58;11.30;99.90
10231;DHT22;62604;49.432;8.680;2022-10-13T00:33:25;11.30;99.90
10231;DHT22;62604;49.432;8.680;2022-10-13T00:35:52;11.30;99.90
10231;DHT22;62604;49.432;8.680;2022-10-13T00:38:21;11.30;99.90
10231;DHT22;62604;49.432;8.680;2022-10-13T00:40:50;11.30;99.90
10231;DHT22;62604;49.432;8.680;2022-10-13T00:43:18;11.30;99.90
10231;DHT22;62604;49.432;8.680;2022-10-13T00:45:48;11.40;99.90
10231;DHT22;62604;49.432;8.680;2022-10-13T00:48:16;11.40;99.90
10231;DHT22;62604;49.432;8.680;2022-10-13T00:50:45;11.50;99.90
10231;DHT22;62604;49.432;8.680;2022-10-13T00:53:13;11.50;99.90
10231;DHT22;62604;49.432;8.680;2022-10-13T00:55:42;11.40;99.90
10231;DHT22;62604;49.432;8.680;2022-10-13T00:58:11;11.60;99.90
10231;DHT22;62604;49.432;8.680;2022-10-13T01:00:42;11.60;99.90
10231;DHT22;62604;49.432;8.680;2022-10-13T01:03:11;11.60;99.90
10231;DHT22;62604;49.432;8.680;2022-10-13T01:05:39;11.60;99.90
10231;DHT22;62604;49.432;8.680;2022-10-13T01:08:08;11.60;99.90
10231;DHT22;62604;49.432;8.680;2022-10-13T01:10:44;11.60;99.90
10231;DHT22;62604;49.432;8.680;2022-10-13T01:13:22;11.60;99.90
10231;DHT22;62604;49.432;8.680;2022-10-13T01:15:54;11.70;99.90
10231;DHT22;62604;49.432;8.680;2022-10-13T01:18:30;11.70;99.90
10231;DHT22;62604;49.432;8.680;2022-10-13T01:21:07;11.70;99.90
10231;DHT22;62604;49.432;8.680;2022-10-13T01:24:01;11.70;99.90
10231;DHT22;62604;49.432;8.680;2022-10-13T01:27:00;11.70;99.90
10231;DHT22;62604;49.432;8.680;2022-10-13T01:29:55;11.60;99.90
10231;DHT22;62604;49.432;8.680;2022-10-13T01:32:29;11.60;99.90
10231;DHT22;62604;49.432;8.680;2022-10-13T01:35:05;11.50;99.90
10231;DHT22;62604;49.432;8.680;2022-10-13T01:37:39;11.50;99.90
10231;DHT22;62604;49.432;8.680;2022-10-13T01:40:14;11.30;99.90
10231;DHT22;62604;49.432;8.680;2022-10-13T01:42:53;11.20;99.90
10231;DHT22;62604;49.432;8.680;2022-10-13T01:45:26;11.10;99.90
10231;DHT22;62604;49.432;8.680;2022-10-13T01:47:55;11.00;99.90
10231;DHT22;62604;49.432;8.680;2022-10-13T01:50:22;11.00;99.90
10231;DHT22;62604;49.432;8.680;2022-10-13T01:52:50;10.90;99.90
10231;DHT22;62604;49.432;8.680;2022-10-13T01:55:17;10.90;99.90
10231;DHT22;62604;49.432;8.680;2022-10-13T01:57:44;10.80;99.90
10231;DHT22;62604;49.432;8.680;2022-10-13T02:00:13;10.70;99.90
10231;DHT22;62604;49.432;8.680;2022-10-13T02:02:50;10.70;99.90
10231;DHT22;62604;49.432;8.680;2022-10-13T02:05:27;10.60;99.90
10231;DHT22;62604;49.432;8.680;2022-10-13T02:08:00;10.60;99.90
10231;DHT22;62604;49.432;8.680;2022-10-13T02:10:33;10.60;99.90
10231;DHT22;62604;49.432;8.680;2022-10-13T02:13:02;10.60;99.90
10231;DHT22;62604;49.432;8.680;2022-10-13T02:15:34;10.70;99.90
10231;DHT22;62604;49.432;8.680;2022-10-13T02:18:03;10.80;99.90
10231;DHT22;62604;49.432;8.680;2022-10-13T02:20:31;10.80;99.90
10231;DHT22;62604;49.432;8.680;2022-10-13T02:23:03;10.90;99.90
10231;DHT22;62604;49.432;8.680;2022-10-13T02:25:32;11.00;99.90
10231;DHT22;62604;49.432;8.680;2022-10-13T02:28:00;10.90;99.90
10231;DHT22;62604;49.432;8.680;2022-10-13T02:30:29;11.00;99.90
10231;DHT22;62604;49.432;8.680;2022-10-13T02:32:57;11.00;99.90
10231;DHT22;62604;49.432;8.680;2022-10-13T02:35:27;11.00;99.90
10231;DHT22;62604;49.432;8.680;2022-10-13T02:37:54;11.10;99.90
10231;DHT22;62604;49.432;8.680;2022-10-13T02:40:21;11.10;99.90
10231;DHT22;62604;49.432;8.680;2022-10-13T02:42:48;11.10;99.90
10231;DHT22;62604;49.432;8.680;2022-10-13T02:45:16;11.10;99.90
10231;DHT22;62604;49.432;8.680;2022-10-13T02:47:43;11.10;99.90
10231;DHT22;62604;49.432;8.680;2022-10-13T02:50:11;11.20;99.90
10231;DHT22;62604;49.432;8.680;2022-10-13T02:52:39;11.20;99.90
10231;DHT22;62604;49.432;8.680;2022-10-13T02:55:07;11.20;99.90
10231;DHT22;62604;49.432;8.680;2022-10-13T02:57:34;11.10;99.90
10231;DHT22;62604;49.432;8.680;2022-10-13T03:00:01;11.10;99.90
10231;DHT22;62604;49.432;8.680;2022-10-13T03:02:30;11.00;99.90
10231;DHT22;62604;49.432;8.680;2022-10-13T03:04:57;11.00;99.90
10231;DHT22;62604;49.432;8.680;2022-10-13T03:07:24;10.90;99.90
10231;DHT22;62604;49.432;8.680;2022-10-13T03:09:52;10.90;99.90
10231;DHT22;62604;49.432;8.680;2022-10-13T03:12:20;10.80;99.90
10231;DHT22;62604;49.432;8.680;2022-10-13T03:14:49;10.80;99.90
10231;DHT22;62604;49.432;8.680;2022-10-13T03:17:16;10.80;99.90
10231;DHT22;62604;49.432;8.680;2022-10-13T03:19:43;10.70;99.90
10231;DHT22;62604;49.432;8.680;2022-10-13T03:22:10;10.70;99.90
10231;DHT22;62604;49.432;8.680;2022-10-13T03:24:39;10.70;99.90
10231;DHT22;62604;49.432;8.680;2022-10-13T03:27:09;10.60;99.90
10231;DHT22;62604;49.432;8.680;2022-10-13T03:29:36;10.60;99.90
10231;DHT22;62604;49.432;8.680;2022-10-13T03:32:03;10.60;99.90
10231;DHT22;62604;49.432;8.680;2022-10-13T03:34:30;10.60;99.90
10231;DHT22;62604;49.432;8.680;2022-10-13T03:36:57;10.60;99.90
10231;DHT22;62604;49.432;8.680;2022-10-13T03:39:25;10.60;99.90
10231;DHT22;62604;49.432;8.680;2022-10-13T03:41:52;10.70;99.90
10231;DHT22;62604;49.432;8.680;2022-10-13T03:44:20;10.80;99.90
10231;DHT22;62604;49.432;8.680;2022-10-13T03:46:47;11.00;99.90
10231;DHT22;62604;49.432;8.680;2022-10-13T03:49:15;10.90;99.90
10231;DHT22;62604;49.432;8.680;2022-10-13T03:51:43;10.80;99.90
10231;DHT22;62604;49.432;8.680;2022-10-13T03:54:11;10.80;99.90
10231;DHT22;62604;49.432;8.680;2022-10-13T03:56:38;10.80;99.90
10231;DHT22;62604;49.432;8.680;2022-10-13T03:59:06;10.80;99.90
10231;DHT22;62604;49.432;8.680;2022-10-13T04:01:34;10.80;99.90
10231;DHT22;62604;49.432;8.680;2022-10-13T04:04:01;10.70;99.90
10231;DHT22;62604;49.432;8.680;2022-10-13T04:06:29;10.70;99.90
10231;DHT22;62604;49.432;8.680;2022-10-13T04:08:56;10.60;99.90
10231;DHT22;62604;49.432;8.680;2022-10-13T04:11:23;10.60;99.90
10231;DHT22;62604;49.432;8.680;2022-10-13T04:13:50;10.60;99.90
10231;DHT22;62604;49.432;8.680;2022-10-13T04:16:20;10.50;99.90
10231;DHT22;62604;49.432;8.680;2022-10-13T04:18:53;10.50;99.90
10231;DHT22;62604;49.432;8.680;2022-10-13T04:21:21;10.50;99.90
10231;DHT22;62604;49.432;8.680;2022-10-13T04:23:49;10.40;99.90
10231;DHT22;62604;49.432;8.680;2022-10-13T04:26:18;10.40;99.90
10231;DHT22;62604;49.432;8.680;2022-10-13T04:28:46;10.40;99.90
10231;DHT22;62604;49.432;8.680;2022-10-13T04:31:14;10.40;99.90
10231;DHT22;62604;49.432;8.680;2022-10-13T04:33:41;10.40;99.90
10231;DHT22;62604;49.432;8.680;2022-10-13T04:36:13;10.40;99.90
10231;DHT22;62604;49.432;8.680;2022-10-13T04:38:41;10.40;99.90
10231;DHT22;62604;49.432;8.680;2022-10-13T04:41:09;10.40;99.90
10231;DHT22;62604;49.432;8.680;2022-10-13T04:43:36;10.40;99.90
10231;DHT22;62604;49.432;8.680;2022-10-13T08:56:35;15.10;99.90
10231;DHT22;62604;49.432;8.680;2022-10-13T08:59:03;15.10;99.90
10231;DHT22;62604;49.432;8.680;2022-10-13T09:01:33;15.10;99.90
10231;DHT22;62604;49.432;8.680;2022-10-13T09:04:12;15.00;99.90
10231;DHT22;62604;49.432;8.680;2022-10-13T09:06:43;15.00;99.90
10231;DHT22;62604;49.432;8.680;2022-10-13T09:09:13;14.80;99.90
10231;DHT22;62604;49.432;8.680;2022-10-13T09:11:43;14.60;99.90
10231;DHT22;62604;49.432;8.680;2022-10-13T09:14:19;14.50;99.90
10231;DHT22;62604;49.432;8.680;2022-10-13T09:16:48;14.40;99.90
10231;DHT22;62604;49.432;8.680;2022-10-13T09:19:25;14.40;99.90
10231;DHT22;62604;49.432;8.680;2022-10-13T09:21:55;14.30;99.90
10231;DHT22;62604;49.432;8.680;2022-10-13T09:24:24;14.10;99.90
10231;DHT22;62604;49.432;8.680;2022-10-13T09:27:04;14.00;99.90
10231;DHT22;62604;49.432;8.680;2022-10-13T09:29:32;13.90;99.90
10231;DHT22;62604;49.432;8.680;2022-10-13T09:32:15;13.90;99.90
10231;DHT22;62604;49.432;8.680;2022-10-13T09:34:43;13.80;99.90
10231;DHT22;62604;49.432;8.680;2022-10-13T09:37:19;13.70;99.90
10231;DHT22;62604;49.432;8.680;2022-10-13T09:39:59;13.70;99.90
10231;DHT22;62604;49.432;8.680;2022-10-13T09:42:30;13.80;99.90
10231;DHT22;62604;49.432;8.680;2022-10-13T09:45:00;13.90;99.90
10231;DHT22;62604;49.432;8.680;2022-10-13T13:18:39;16.70;99.90
10231;DHT22;62604;49.432;8.680;2022-10-13T13:21:08;16.70;99.90
10231;DHT22;62604;49.432;8.680;2022-10-13T13:23:35;16.70;99.90
10231;DHT22;62604;49.432;8.680;2022-10-13T13:26:10;16.60;99.90
10231;DHT22;62604;49.432;8.680;2022-10-13T13:28:41;16.60;99.90
10231;DHT22;62604;49.432;8.680;2022-10-13T13:31:09;16.60;99.90
10231;DHT22;62604;49.432;8.680;2022-10-13T13:33:38;16.70;99.90
10231;DHT22;62604;49.432;8.680;2022-10-13T13:36:14;16.80;99.90
10231;DHT22;62604;49.432;8.680;2022-10-13T13:38:41;16.80;99.90
10231;DHT22;62604;49.432;8.680;2022-10-13T13:41:10;16.90;99.90
10231;DHT22;62604;49.432;8.680;2022-10-13T13:43:38;17.00;99.90
10231;DHT22;62604;49.432;8.680;2022-10-13T13:46:10;16.80;99.90
10231;DHT22;62604;49.432;8.680;2022-10-13T13:48:39;16.70;99.90
10231;DHT22;62604;49.432;8.680;2022-10-13T13:51:07;16.70;99.90
10231;DHT22;62604;49.432;8.680;2022-10-13T13:53:35;16.60;99.90
10231;DHT22;62604;49.432;8.680;2022-10-13T13:56:02;16.60;99.90
10231;DHT22;62604;49.432;8.680;2022-10-13T13:58:29;16.50;99.90
10231;DHT22;62604;49.432;8.680;2022-10-13T14:00:58;16.50;99.90
10231;DHT22;62604;49.432;8.680;2022-10-13T14:03:25;16.50;99.90
10231;DHT22;62604;49.432;8.680;2022-10-13T14:05:54;16.50;99.90
10231;DHT22;62604;49.432;8.680;2022-10-13T14:08:22;16.60;99.90
10231;DHT22;62604;49.432;8.680;2022-10-13T14:10:51;16.70;99.90
10231;DHT22;62604;49.432;8.680;2022-10-13T14:13:18;16.80;99.90
10231;DHT22;62604;49.432;8.680;2022-10-13T14:15:55;16.80;99.90
10231;DHT22;62604;49.432;8.680;2022-10-13T14:18:22;16.90;99.90
10231;DHT22;62604;49.432;8.680;2022-10-13T14:20:50;17.10;99.90
10231;DHT22;62604;49.432;8.680;2022-10-13T14:23:20;17.20;99.90
10231;DHT22;62604;49.432;8.680;2022-10-13T14:25:49;17.10;99.90
10231;DHT22;62604;49.432;8.680;2022-10-13T14:28:16;17.00;99.90
10231;DHT22;62604;49.432;8.680;2022-10-13T14:30:45;16.90;99.90
10231;DHT22;62604;49.432;8.680;2022-10-13T14:33:14;16.90;99.90
10231;DHT22;62604;49.432;8.680;2022-10-13T14:35:44;17.00;99.90
10231;DHT22;62604;49.432;8.680;2022-10-13T14:38:12;17.00;99.90
10231;DHT22;62604;49.432;8.680;2022-10-13T14:40:43;17.00;99.90
10231;DHT22;62604;49.432;8.680;2022-10-13T14:43:12;17.00;99.90
10231;DHT22;62604;49.432;8.680;2022-10-13T14:45:39;16.90;99.90
10231;DHT22;62604;49.432;8.680;2022-10-13T14:48:07;16.80;99.90
10231;DHT22;62604;49.432;8.680;2022-10-13T14:50:36;16.80;99.90
10231;DHT22;62604;49.432;8.680;2022-10-13T14:53:03;16.70;99.90
10231;DHT22;62604;49.432;8.680;2022-10-13T14:55:34;16.70;99.90
10231;DHT22;62604;49.432;8.680;2022-10-13T14:58:02;16.60;99.90
10231;DHT22;62604;49.432;8.680;2022-10-13T15:00:29;16.60;99.90
10231;DHT22;62604;49.432;8.680;2022-10-13T15:02:56;16.60;99.90
10231;DHT22;62604;49.432;8.680;2022-10-13T15:05:23;16.60;99.90
10231;DHT22;62604;49.432;8.680;2022-10-13T15:07:51;16.50;99.90
10231;DHT22;62604;49.432;8.680;2022-10-13T15:10:18;16.40;99.90
10231;DHT22;62604;49.432;8.680;2022-10-13T15:12:45;16.40;99.90
10231;DHT22;62604;49.432;8.680;2022-10-13T15:15:14;16.30;99.90
10231;DHT22;62604;49.432;8.680;2022-10-13T15:17:41;16.30;99.90
10231;DHT22;62604;49.432;8.680;2022-10-13T15:20:09;16.30;99.90
10231;DHT22;62604;49.432;8.680;2022-10-13T15:22:37;16.20;99.90
10231;DHT22;62604;49.432;8.680;2022-10-13T15:25:05;16.20;99.90
10231;DHT22;62604;49.432;8.680;2022-10-13T15:27:35;16.20;99.90
10231;DHT22;62604;49.432;8.680;2022-10-13T15:30:05;16.20;99.90
10231;DHT22;62604;49.432;8.680;2022-10-13T15:32:34;16.20;99.90
10231;DHT22;62604;49.432;8.680;2022-10-13T15:35:02;16.20;99.90
10231;DHT22;62604;49.432;8.680;2022-10-13T15:37:30;16.10;99.90
10231;DHT22;62604;49.432;8.680;2022-10-13T15:39:57;16.10;99.90
10231;DHT22;62604;49.432;8.680;2022-10-13T15:42:25;16.10;99.90
10231;DHT22;62604;49.432;8.680;2022-10-13T15:44:52;16.10;99.90
10231;DHT22;62604;49.432;8.680;2022-10-13T15:47:19;16.10;99.90
10231;DHT22;62604;49.432;8.680;2022-10-13T15:49:48;16.20;99.90
10231;DHT22;62604;49.432;8.680;2022-10-13T15:52:15;16.10;99.90
10231;DHT22;62604;49.432;8.680;2022-10-13T15:54:43;16.10;99.90
10231;DHT22;62604;49.432;8.680;2022-10-13T15:57:10;16.00;99.90
10231;DHT22;62604;49.432;8.680;2022-10-13T15:59:39;16.00;99.90
10231;DHT22;62604;49.432;8.680;2022-10-13T16:02:07;15.90;99.90
10231;DHT22;62604;49.432;8.680;2022-10-13T16:04:36;15.90;99.90
10231;DHT22;62604;49.432;8.680;2022-10-13T16:07:04;15.90;99.90
10231;DHT22;62604;49.432;8.680;2022-10-13T16:09:31;15.90;99.90
10231;DHT22;62604;49.432;8.680;2022-10-13T16:11:59;15.90;99.90
10231;DHT22;62604;49.432;8.680;2022-10-13T16:14:26;15.90;99.90
10231;DHT22;62604;49.432;8.680;2022-10-13T16:16:53;15.80;99.90
10231;DHT22;62604;49.432;8.680;2022-10-13T16:19:21;15.80;99.90
10231;DHT22;62604;49.432;8.680;2022-10-13T16:21:48;15.70;99.90
10231;DHT22;62604;49.432;8.680;2022-10-13T16:24:16;15.70;99.90
10231;DHT22;62604;49.432;8.680;2022-10-13T16:26:43;15.70;99.90
10231;DHT22;62604;49.432;8.680;2022-10-13T16:29:10;15.70;99.90
10231;DHT22;62604;49.432;8.680;2022-10-13T16:31:38;15.70;99.90
10231;DHT22;62604;49.432;8.680;2022-10-13T16:34:05;15.60;99.90
10231;DHT22;62604;49.432;8.680;2022-10-13T16:36:32;15.60;99.90
10231;DHT22;62604;49.432;8.680;2022-10-13T16:38:59;15.50;99.90
10231;DHT22;62604;49.432;8.680;2022-10-13T16:41:27;15.40;99.90
10231;DHT22;62604;49.432;8.680;2022-10-13T16:43:54;15.40;99.90
10231;DHT22;62604;49.432;8.680;2022-10-13T16:46:21;15.30;99.90
10231;DHT22;62604;49.432;8.680;2022-10-13T16:48:48;15.30;99.90
10231;DHT22;62604;49.432;8.680;2022-10-13T16:51:17;15.20;99.90
10231;DHT22;62604;49.432;8.680;2022-10-13T16:53:46;15.10;99.90
10231;DHT22;62604;49.432;8.680;2022-10-13T16:56:13;15.10;99.90
10231;DHT22;62604;49.432;8.680;2022-10-13T16:58:47;15.00;99.90
10231;DHT22;62604;49.432;8.680;2022-10-13T17:01:15;15.00;99.90
10231;DHT22;62604;49.432;8.680;2022-10-13T17:03:43;14.90;99.90
10231;DHT22;62604;49.432;8.680;2022-10-13T17:06:11;14.80;99.90
10231;DHT22;62604;49.432;8.680;2022-10-13T17:08:39;14.80;99.90
10231;DHT22;62604;49.432;8.680;2022-10-13T17:11:07;14.70;99.90
10231;DHT22;62604;49.432;8.680;2022-10-13T17:13:35;14.60;99.90
10231;DHT22;62604;49.432;8.680;2022-10-13T17:16:04;14.60;99.90
10231;DHT22;62604;49.432;8.680;2022-10-13T17:18:31;14.50;99.90
10231;DHT22;62604;49.432;8.680;2022-10-13T17:20:59;14.50;99.90
10231;DHT22;62604;49.432;8.680;2022-10-13T17:23:27;14.50;99.90
10231;DHT22;62604;49.432;8.680;2022-10-13T17:25:59;14.40;99.90
10231;DHT22;62604;49.432;8.680;2022-10-13T17:28:26;14.40;99.90
10231;DHT22;62604;49.432;8.680;2022-10-13T17:30:56;14.40;99.90
10231;DHT22;62604;49.432;8.680;2022-10-13T17:33:27;14.30;99.90
10231;DHT22;62604;49.432;8.680;2022-10-13T17:35:58;14.30;99.90
10231;DHT22;62604;49.432;8.680;2022-10-13T17:38:26;14.30;99.90
10231;DHT22;62604;49.432;8.680;2022-10-13T17:40:57;14.30;99.90
10231;DHT22;62604;49.432;8.680;2022-10-13T17:43:24;14.30;99.90
10231;DHT22;62604;49.432;8.680;2022-10-13T17:45:51;14.20;99.90
10231;DHT22;62604;49.432;8.680;2022-10-13T17:48:18;14.20;99.90
10231;DHT22;62604;49.432;8.680;2022-10-13T17:50:47;14.10;99.90
10231;DHT22;62604;49.432;8.680;2022-10-13T17:53:14;14.10;99.90
10231;DHT22;62604;49.432;8.680;2022-10-13T17:55:43;14.10;99.90
10231;DHT22;62604;49.432;8.680;2022-10-13T17:58:10;14.10;99.90
10231;DHT22;62604;49.432;8.680;2022-10-13T18:00:37;14.10;99.90
10231;DHT22;62604;49.432;8.680;2022-10-13T18:03:04;14.10;99.90
10231;DHT22;62604;49.432;8.680;2022-10-13T18:05:31;14.00;99.90
10231;DHT22;62604;49.432;8.680;2022-10-13T18:08:00;14.00;99.90
10231;DHT22;62604;49.432;8.680;2022-10-13T18:10:27;14.00;99.90
10231;DHT22;62604;49.432;8.680;2022-10-13T18:12:55;14.00;99.90
10231;DHT22;62604;49.432;8.680;2022-10-13T18:15:22;14.00;99.90
10231;DHT22;62604;49.432;8.680;2022-10-13T18:17:49;14.00;99.90
10231;DHT22;62604;49.432;8.680;2022-10-13T18:20:16;14.00;99.90
10231;DHT22;62604;49.432;8.680;2022-10-13T18:22:43;14.00;99.90
10231;DHT22;62604;49.432;8.680;2022-10-13T18:25:12;13.90;99.90
10231;DHT22;62604;49.432;8.680;2022-10-13T18:27:39;13.90;99.90
10231;DHT22;62604;49.432;8.680;2022-10-13T18:30:07;13.90;99.90
10231;DHT22;62604;49.432;8.680;2022-10-13T18:32:35;13.90;99.90
10231;DHT22;62604;49.432;8.680;2022-10-13T18:35:02;13.90;99.90
10231;DHT22;62604;49.432;8.680;2022-10-13T18:37:29;13.90;99.90
10231;DHT22;62604;49.432;8.680;2022-10-13T18:39:56;13.90;99.90
10231;DHT22;62604;49.432;8.680;2022-10-13T18:42:25;13.90;99.90
10231;DHT22;62604;49.432;8.680;2022-10-13T18:44:53;13.90;99.90
10231;DHT22;62604;49.432;8.680;2022-10-13T18:47:20;13.90;99.90
10231;DHT22;62604;49.432;8.680;2022-10-13T18:49:49;13.90;99.90
10231;DHT22;62604;49.432;8.680;2022-10-13T18:52:16;13.80;99.90
10231;DHT22;62604;49.432;8.680;2022-10-13T18:54:44;13.80;99.90
10231;DHT22;62604;49.432;8.680;2022-10-13T18:57:11;13.80;99.90
10231;DHT22;62604;49.432;8.680;2022-10-13T18:59:40;13.80;99.90
10231;DHT22;62604;49.432;8.680;2022-10-13T19:02:08;13.80;99.90
10231;DHT22;62604;49.432;8.680;2022-10-13T19:04:38;13.80;99.90
10231;DHT22;62604;49.432;8.680;2022-10-13T19:07:05;13.80;99.90
10231;DHT22;62604;49.432;8.680;2022-10-13T19:09:32;13.70;99.90
10231;DHT22;62604;49.432;8.680;2022-10-13T19:11:59;13.80;99.90
10231;DHT22;62604;49.432;8.680;2022-10-13T19:14:27;13.70;99.90
10231;DHT22;62604;49.432;8.680;2022-10-13T19:16:56;13.80;99.90
10231;DHT22;62604;49.432;8.680;2022-10-13T19:19:23;13.70;99.90
10231;DHT22;62604;49.432;8.680;2022-10-13T19:21:51;13.80;99.90
10231;DHT22;62604;49.432;8.680;2022-10-13T19:24:18;13.70;99.90
10231;DHT22;62604;49.432;8.680;2022-10-13T19:26:45;13.70;99.90
10231;DHT22;62604;49.432;8.680;2022-10-13T19:29:12;13.70;99.90
10231;DHT22;62604;49.432;8.680;2022-10-13T19:31:41;13.70;99.90
10231;DHT22;62604;49.432;8.680;2022-10-13T19:34:11;13.70;99.90
10231;DHT22;62604;49.432;8.680;2022-10-13T19:36:41;13.70;99.90
10231;DHT22;62604;49.432;8.680;2022-10-13T19:39:12;13.70;99.90
10231;DHT22;62604;49.432;8.680;2022-10-13T19:41:40;13.70;99.90
10231;DHT22;62604;49.432;8.680;2022-10-13T19:44:07;13.70;99.90
10231;DHT22;62604;49.432;8.680;2022-10-13T19:46:36;13.70;99.90
10231;DHT22;62604;49.432;8.680;2022-10-13T19:49:06;13.70;99.90
10231;DHT22;62604;49.432;8.680;2022-10-13T19:51:38;13.70;99.90
10231;DHT22;62604;49.432;8.680;2022-10-13T19:54:06;13.70;99.90
10231;DHT22;62604;49.432;8.680;2022-10-13T19:56:34;13.70;99.90
10231;DHT22;62604;49.432;8.680;2022-10-13T19:59:02;13.70;99.90
10231;DHT22;62604;49.432;8.680;2022-10-13T20:01:30;13.70;99.90
10231;DHT22;62604;49.432;8.680;2022-10-13T20:04:04;13.70;99.90
10231;DHT22;62604;49.432;8.680;2022-10-13T20:06:32;13.70;99.90
10231;DHT22;62604;49.432;8.680;2022-10-13T20:09:01;13.80;99.90
10231;DHT22;62604;49.432;8.680;2022-10-13T20:11:28;13.70;99.90
10231;DHT22;62604;49.432;8.680;2022-10-13T20:13:55;13.80;99.90
10231;DHT22;62604;49.432;8.680;2022-10-13T20:16:23;13.70;99.90
10231;DHT22;62604;49.432;8.680;2022-10-13T20:18:51;13.80;99.90
10231;DHT22;62604;49.432;8.680;2022-10-13T20:21:19;13.80;99.90
10231;DHT22;62604;49.432;8.680;2022-10-13T20:23:48;13.80;99.90
10231;DHT22;62604;49.432;8.680;2022-10-13T20:26:18;13.80;99.90
10231;DHT22;62604;49.432;8.680;2022-10-13T20:28:49;13.80;99.90
10231;DHT22;62604;49.432;8.680;2022-10-13T20:31:18;13.80;99.90
10231;DHT22;62604;49.432;8.680;2022-10-13T20:33:45;13.80;99.90
10231;DHT22;62604;49.432;8.680;2022-10-13T20:36:15;13.80;99.90
10231;DHT22;62604;49.432;8.680;2022-10-13T20:38:43;13.80;99.90
10231;DHT22;62604;49.432;8.680;2022-10-13T20:41:14;13.80;99.90
10231;DHT22;62604;49.432;8.680;2022-10-13T20:43:45;13.80;99.90
10231;DHT22;62604;49.432;8.680;2022-10-13T20:46:13;13.80;99.90
10231;DHT22;62604;49.432;8.680;2022-10-13T20:48:41;13.80;99.90
10231;DHT22;62604;49.432;8.680;2022-10-13T20:51:10;13.80;99.90
10231;DHT22;62604;49.432;8.680;2022-10-13T20:53:39;13.80;99.90
10231;DHT22;62604;49.432;8.680;2022-10-13T20:56:08;13.80;99.90
10231;DHT22;62604;49.432;8.680;2022-10-13T20:58:35;13.80;99.90
10231;DHT22;62604;49.432;8.680;2022-10-13T21:01:04;13.80;99.90
10231;DHT22;62604;49.432;8.680;2022-10-13T21:03:31;13.80;99.90
10231;DHT22;62604;49.432;8.680;2022-10-13T21:06:01;13.80;99.90
10231;DHT22;62604;49.432;8.680;2022-10-13T21:08:28;13.80;99.90
10231;DHT22;62604;49.432;8.680;2022-10-13T21:10:56;13.70;99.90
10231;DHT22;62604;49.432;8.680;2022-10-13T21:13:28;13.80;99.90
10231;DHT22;62604;49.432;8.680;2022-10-13T21:15:55;13.80;99.90
10231;DHT22;62604;49.432;8.680;2022-10-13T21:18:25;13.70;99.90
10231;DHT22;62604;49.432;8.680;2022-10-13T21:20:52;13.70;99.90
10231;DHT22;62604;49.432;8.680;2022-10-13T21:23:20;13.70;99.90
10231;DHT22;62604;49.432;8.680;2022-10-13T21:25:47;13.70;99.90
10231;DHT22;62604;49.432;8.680;2022-10-13T21:28:14;13.70;99.90
10231;DHT22;62604;49.432;8.680;2022-10-13T21:30:41;13.70;99.90
10231;DHT22;62604;49.432;8.680;2022-10-13T21:33:08;13.70;99.90
10231;DHT22;62604;49.432;8.680;2022-10-13T21:35:36;13.70;99.90
10231;DHT22;62604;49.432;8.680;2022-10-13T21:38:03;13.70;99.90
10231;DHT22;62604;49.432;8.680;2022-10-13T21:40:30;13.70;99.90
10231;DHT22;62604;49.432;8.680;2022-10-13T21:42:57;13.80;99.90
10231;DHT22;62604;49.432;8.680;2022-10-13T21:45:24;13.80;99.90
10231;DHT22;62604;49.432;8.680;2022-10-13T21:47:51;13.70;99.90
10231;DHT22;62604;49.432;8.680;2022-10-13T21:50:18;13.70;99.90
10231;DHT22;62604;49.432;8.680;2022-10-13T21:52:46;13.70;99.90
10231;DHT22;62604;49.432;8.680;2022-10-13T21:55:13;13.70;99.90
10231;DHT22;62604;49.432;8.680;2022-10-13T21:57:40;13.70;99.90
10231;DHT22;62604;49.432;8.680;2022-10-13T22:00:08;13.70;99.90
10231;DHT22;62604;49.432;8.680;2022-10-13T22:02:35;13.60;99.90
10231;DHT22;62604;49.432;8.680;2022-10-13T22:05:02;13.60;99.90
10231;DHT22;62604;49.432;8.680;2022-10-13T22:07:29;13.60;99.90
10231;DHT22;62604;49.432;8.680;2022-10-13T22:09:58;13.60;99.90
10231;DHT22;62604;49.432;8.680;2022-10-13T22:12:25;13.60;99.90
10231;DHT22;62604;49.432;8.680;2022-10-13T22:14:51;13.60;99.90
10231;DHT22;62604;49.432;8.680;2022-10-13T22:17:18;13.60;99.90
10231;DHT22;62604;49.432;8.680;2022-10-13T22:19:45;13.50;99.90
10231;DHT22;62604;49.432;8.680;2022-10-13T22:22:13;13.60;99.90
10231;DHT22;62604;49.432;8.680;2022-10-13T22:24:40;13.60;99.90
10231;DHT22;62604;49.432;8.680;2022-10-13T22:27:09;13.50;99.90
10231;DHT22;62604;49.432;8.680;2022-10-13T22:29:36;13.60;99.90
10231;DHT22;62604;49.432;8.680;2022-10-13T22:32:03;13.50;99.90
10231;DHT22;62604;49.432;8.680;2022-10-13T22:34:30;13.60;99.90
10231;DHT22;62604;49.432;8.680;2022-10-13T22:36:57;13.60;99.90
10231;DHT22;62604;49.432;8.680;2022-10-13T22:39:24;13.70;99.90
10231;DHT22;62604;49.432;8.680;2022-10-13T22:41:52;13.60;99.90
10231;DHT22;62604;49.432;8.680;2022-10-13T22:44:21;13.70;99.90
10231;DHT22;62604;49.432;8.680;2022-10-13T22:46:48;13.70;99.90
10231;DHT22;62604;49.432;8.680;2022-10-13T22:49:15;13.70;99.90
10231;DHT22;62604;49.432;8.680;2022-10-13T22:51:42;13.70;99.90
10231;DHT22;62604;49.432;8.680;2022-10-13T22:54:09;13.60;99.90
10231;DHT22;62604;49.432;8.680;2022-10-13T22:56:36;13.70;99.90
10231;DHT22;62604;49.432;8.680;2022-10-13T22:59:05;13.70;99.90
10231;DHT22;62604;49.432;8.680;2022-10-13T23:01:34;13.70;99.90
10231;DHT22;62604;49.432;8.680;2022-10-13T23:04:02;13.70;99.90
10231;DHT22;62604;49.432;8.680;2022-10-13T23:06:32;13.70;99.90
10231;DHT22;62604;49.432;8.680;2022-10-13T23:09:00;13.60;99.90
10231;DHT22;62604;49.432;8.680;2022-10-13T23:11:27;13.60;99.90
10231;DHT22;62604;49.432;8.680;2022-10-13T23:13:54;13.60;99.90
10231;DHT22;62604;49.432;8.680;2022-10-13T23:16:23;13.60;99.90
10231;DHT22;62604;49.432;8.680;2022-10-13T23:18:51;13.60;99.90
10231;DHT22;62604;49.432;8.680;2022-10-13T23:21:20;13.60;99.90